Time;durP1;ratioP1;P1;durP2;ratioP2;P2;SDS_P1;SDS_P2;PMS_P1;PMS_P2;Temp;Humidity;BMP_temperature;BMP_pressure;BME280_temperature;BME280_humidity;BME280_pressure;Samples;Min_cycle;Max_cycle;Signal;HPM_P1;HPM_P2
2022/03/25 05:22:38;;;;;;;46.88;19.58;;;;;;;1.35;92.11;101300.81;5129725;27;20119;-74
2022/03/25 05:25:08;;;;;;;36.83;18.55;;;;;;;1.36;91.36;101304.28;5130101;28;20445;-75
2022/03/25 05:27:48;;;;;;;39.42;19.05;;;;;;;1.40;92.40;101307.59;5129789;28;20060;-73
2022/03/25 05:30:16;;;;;;;39.90;19.08;;;;;;;1.35;92.08;101303.44;5129839;28;20050;-75
2022/03/25 05:32:42;;;;;;;39.55;19.15;;;;;;;1.42;91.59;101313.59;5129458;28;20053;-73
2022/03/25 05:35:09;;;;;;;34.00;18.63;;;;;;;1.46;91.38;101313.34;5130345;27;20479;-74
2022/03/25 05:37:35;;;;;;;43.97;18.98;;;;;;;1.45;90.85;101316.91;5129735;28;20043;-74
2022/03/25 05:40:01;;;;;;;40.42;18.77;;;;;;;1.49;91.51;101309.66;5128575;28;20046;-73
2022/03/25 05:42:28;;;;;;;39.72;17.40;;;;;;;1.48;90.95;101326.38;5128081;28;20042;-73
2022/03/25 05:44:53;;;;;;;36.13;18.05;;;;;;;1.52;90.89;101327.91;5128316;28;20040;-73
2022/03/25 05:47:19;;;;;;;33.85;17.38;;;;;;;1.57;89.64;101315.34;5130162;27;20476;-74
2022/03/25 05:49:45;;;;;;;35.10;17.33;;;;;;;1.61;90.25;101327.34;5130069;27;20071;-74
2022/03/25 05:52:11;;;;;;;36.60;18.20;;;;;;;1.64;89.73;101324.56;5129303;27;20499;-74
2022/03/25 05:54:37;;;;;;;35.95;18.60;;;;;;;1.70;90.92;101332.06;5129424;27;20043;-74
2022/03/25 05:57:03;;;;;;;37.40;18.90;;;;;;;1.72;90.80;101322.31;5129260;28;20376;-74
2022/03/25 05:59:28;;;;;;;37.58;17.85;;;;;;;1.72;90.84;101332.81;5129239;28;20035;-74
2022/03/25 06:01:54;;;;;;;33.58;17.00;;;;;;;1.79;91.42;101326.28;5133082;28;20103;-75
2022/03/25 06:04:20;;;;;;;34.30;16.67;;;;;;;1.88;91.56;101325.72;5133441;28;20058;-74
2022/03/25 06:06:46;;;;;;;29.70;16.70;;;;;;;1.92;91.51;101326.38;5132289;27;20552;-76
2022/03/25 06:09:13;;;;;;;29.48;16.15;;;;;;;2.04;91.60;101335.34;5129610;28;20035;-75
2022/03/25 06:11:39;;;;;;;32.13;17.48;;;;;;;2.12;91.65;101335.72;5129135;27;20043;-74
2022/03/25 06:14:04;;;;;;;30.90;17.40;;;;;;;2.18;91.84;101338.81;5131637;27;20046;-75
2022/03/25 06:16:30;;;;;;;31.17;16.23;;;;;;;2.23;90.83;101330.66;5129289;28;20039;-75
2022/03/25 06:18:55;;;;;;;32.88;16.98;;;;;;;2.39;89.73;101334.03;5129111;27;20039;-75
2022/03/25 06:21:21;;;;;;;28.55;15.98;;;;;;;2.54;88.54;101323.47;5127871;28;20445;-74
2022/03/25 06:23:47;;;;;;;28.60;15.65;;;;;;;2.75;88.28;101340.59;5128772;28;20082;-74
2022/03/25 06:26:13;;;;;;;31.85;16.65;;;;;;;2.94;87.37;101335.84;5129051;27;20038;-75
2022/03/25 06:28:38;;;;;;;26.85;14.10;;;;;;;3.09;86.38;101336.63;5128822;28;20552;-75
2022/03/25 06:31:04;;;;;;;33.63;17.02;;;;;;;3.25;87.17;101342.59;5129064;28;20095;-73
2022/03/25 06:33:30;;;;;;;30.77;15.63;;;;;;;3.42;86.40;101340.66;5117833;27;20114;-72
2022/03/25 06:35:56;;;;;;;29.02;16.52;;;;;;;3.63;85.36;101344.50;5114873;28;20420;-73
2022/03/25 06:38:22;;;;;;;29.48;15.13;;;;;;;3.78;85.99;101350.53;5114954;28;20039;-73
2022/03/25 06:40:47;;;;;;;26.42;16.00;;;;;;;3.96;83.38;101340.56;5114785;28;20023;-73
2022/03/25 06:43:13;;;;;;;32.08;14.70;;;;;;;4.17;83.51;101348.78;5114520;28;20400;-73
2022/03/25 06:45:39;;;;;;;31.33;16.23;;;;;;;4.45;83.11;101347.75;5114591;28;20162;-73
2022/03/25 06:48:05;;;;;;;25.30;14.55;;;;;;;4.64;83.59;101345.50;5114687;28;20043;-72
2022/03/25 06:50:31;;;;;;;29.52;15.02;;;;;;;4.86;82.67;101358.84;5114664;28;20051;-72
2022/03/25 06:53:01;;;;;;;29.55;14.93;;;;;;;5.15;80.42;101359.41;5114261;28;20480;-72
2022/03/25 06:55:28;;;;;;;29.35;15.60;;;;;;;5.40;78.99;101361.09;5114357;28;20557;-72
2022/03/25 06:57:54;;;;;;;30.10;15.65;;;;;;;5.63;75.36;101363.84;5114571;28;20032;-73
2022/03/25 07:00:21;;;;;;;29.05;15.73;;;;;;;5.89;74.02;101352.16;5115105;28;20456;-70
2022/03/25 07:02:48;;;;;;;30.25;15.32;;;;;;;6.23;70.86;101361.03;5113355;28;20039;-71
2022/03/25 07:05:13;;;;;;;30.70;16.15;;;;;;;6.53;70.86;101362.25;5115016;28;20103;-71
2022/03/25 07:07:41;;;;;;;29.35;16.33;;;;;;;6.64;71.29;101361.41;5114547;28;20530;-71
2022/03/25 07:10:11;;;;;;;32.08;16.85;;;;;;;6.79;68.04;101365.50;5114795;28;20055;-71
2022/03/25 07:12:39;;;;;;;33.33;16.30;;;;;;;7.03;65.10;101362.69;5114573;28;20088;-72
2022/03/25 07:15:07;;;;;;;29.33;15.30;;;;;;;7.17;64.20;101345.66;5116352;28;20123;-71
2022/03/25 07:17:33;;;;;;;29.85;16.15;;;;;;;7.45;63.01;101366.31;5115149;28;20031;-71
2022/03/25 07:19:59;;;;;;;28.52;14.77;;;;;;;7.71;61.82;101361.53;5115354;28;20038;-72
2022/03/25 07:22:24;;;;;;;31.38;15.88;;;;;;;7.93;59.74;101370.34;5114083;28;20032;-70
2022/03/25 07:24:50;;;;;;;34.22;16.60;;;;;;;8.09;61.85;101368.94;5113914;28;20035;-72
2022/03/25 07:27:15;;;;;;;32.58;15.98;;;;;;;8.37;59.67;101369.25;5112591;28;20084;-72
2022/03/25 07:29:41;;;;;;;33.95;17.33;;;;;;;8.36;61.41;101371.06;5113773;28;20032;-72
2022/03/25 07:32:07;;;;;;;31.10;16.88;;;;;;;8.53;58.59;101374.06;5113539;28;20043;-73
2022/03/25 07:34:35;;;;;;;29.35;15.98;;;;;;;8.70;56.38;101370.81;5113786;28;20035;-72
2022/03/25 07:37:01;;;;;;;;;;;;;;;8.82;56.54;101376.88;5114174;28;20111;-72
2022/03/25 07:39:27;;;;;;;34.20;16.55;;;;;;;8.68;57.90;101378.06;5113792;28;20367;-71
2022/03/25 07:41:53;;;;;;;30.92;15.95;;;;;;;8.86;55.10;101379.09;5113507;28;20055;-72
2022/03/25 07:44:19;;;;;;;30.70;16.80;;;;;;;8.92;55.99;101383.88;5112931;28;20036;-72
2022/03/25 07:46:45;;;;;;;30.45;16.63;;;;;;;9.14;54.17;101384.66;5113523;28;20388;-71
2022/03/25 07:49:10;;;;;;;31.05;16.15;;;;;;;9.23;55.28;101379.34;5113687;28;20031;-72
2022/03/25 07:51:36;;;;;;;30.52;16.48;;;;;;;9.36;55.04;101376.44;5113321;28;20039;-71
2022/03/25 07:54:02;;;;;;;31.95;17.92;;;;;;;9.57;53.17;101381.63;5113369;28;20434;-73
2022/03/25 07:56:28;;;;;;;29.67;16.23;;;;;;;9.69;53.13;101383.16;5113396;28;20496;-71
2022/03/25 07:58:55;;;;;;;32.83;16.40;;;;;;;9.66;52.77;101387.94;5113213;28;20027;-71
2022/03/25 08:01:21;;;;;;;34.08;17.10;;;;;;;9.78;52.46;101393.00;5113315;28;20442;-72
2022/03/25 08:03:46;;;;;;;34.30;18.23;;;;;;;9.98;52.18;101388.50;5112929;28;20043;-74
2022/03/25 08:06:13;;;;;;;31.50;16.10;;;;;;;10.21;52.24;101383.69;5113157;28;20067;-74
2022/03/25 08:08:38;;;;;;;33.25;17.75;;;;;;;10.26;50.93;101375.31;5113172;28;20047;-75
2022/03/25 08:11:04;;;;;;;32.15;17.67;;;;;;;10.16;50.18;101382.44;5111816;28;20040;-73
2022/03/25 08:13:30;;;;;;;33.65;18.05;;;;;;;10.53;50.76;101380.69;5112748;28;20045;-74
2022/03/25 08:15:55;;;;;;;31.42;17.77;;;;;;;10.53;51.44;101386.00;5113045;28;20042;-71
2022/03/25 08:18:21;;;;;;;35.08;18.52;;;;;;;10.53;51.35;101380.69;5112827;28;20039;-71
2022/03/25 08:20:48;;;;;;;31.08;16.65;;;;;;;10.77;50.02;101380.19;5111455;28;20035;-72
2022/03/25 08:28:57;;;;;;;30.10;16.20;;;;;;;11.43;46.79;101384.44;5112556;28;20141;-70
2022/03/25 08:31:23;;;;;;;29.95;17.40;;;;;;;11.68;48.57;101383.69;5111246;28;20487;-71
2022/03/25 08:33:49;;;;;;;30.25;18.17;;;;;;;11.91;46.23;101383.25;5112322;28;20040;-71
2022/03/25 08:36:18;;;;;;;32.35;16.85;;;;;;;12.14;45.88;101384.44;5112141;28;20038;-72
2022/03/25 08:38:44;;;;;;;31.42;16.85;;;;;;;11.88;46.36;101376.38;5112701;28;20114;-70
2022/03/25 08:41:11;;;;;;;31.42;16.55;;;;;;;12.09;45.30;101381.38;5113034;28;20485;-71
2022/03/25 08:43:37;;;;;;;28.85;16.02;;;;;;;12.39;45.10;101371.25;5112485;28;20492;-72
2022/03/25 08:46:03;;;;;;;29.05;17.27;;;;;;;12.75;45.95;101372.75;5112239;28;20027;-71
2022/03/25 08:48:29;;;;;;;28.88;16.00;;;;;;;12.61;45.32;101377.88;5109949;28;20071;-70
2022/03/25 08:50:55;;;;;;;27.63;16.63;;;;;;;12.77;44.65;101369.91;5111322;28;20039;-70
2022/03/25 08:53:21;;;;;;;30.08;16.77;;;;;;;13.23;44.49;101378.47;5112123;28;20028;-72
2022/03/25 08:55:47;;;;;;;31.23;17.08;;;;;;;13.23;43.73;101384.66;5112070;27;20050;-74
2022/03/25 08:58:13;;;;;;;30.67;17.63;;;;;;;13.48;44.11;101382.06;5112121;28;20381;-73
2022/03/25 09:00:38;;;;;;;28.13;17.05;;;;;;;13.75;42.57;101375.56;5112263;28;20035;-72
2022/03/25 09:03:05;;;;;;;27.42;16.40;;;;;;;13.76;42.93;101380.75;5112085;28;20043;-72
2022/03/25 09:05:31;;;;;;;31.92;17.92;;;;;;;13.41;43.89;101378.34;5111801;28;20043;-72
2022/03/25 09:07:57;;;;;;;29.98;16.45;;;;;;;13.99;42.28;101377.41;5112350;28;20031;-72
2022/03/25 09:10:22;;;;;;;26.45;16.17;;;;;;;13.93;42.98;101380.75;5110671;28;20519;-71
2022/03/25 09:12:48;;;;;;;29.10;17.23;;;;;;;14.13;43.37;101374.03;5111753;28;20093;-72
2022/03/25 09:15:15;;;;;;;28.30;17.33;;;;;;;14.11;42.66;101376.06;5111795;28;20035;-69
2022/03/25 09:17:43;;;;;;;28.25;17.52;;;;;;;14.72;41.61;101374.59;5111935;28;20035;-72
2022/03/25 09:20:10;;;;;;;29.75;17.33;;;;;;;14.96;39.94;101368.31;5111988;28;20055;-72
2022/03/25 09:22:36;;;;;;;29.60;17.13;;;;;;;14.64;42.10;101371.97;5112033;28;20050;-74
2022/03/25 09:25:04;;;;;;;31.80;18.27;;;;;;;15.03;38.47;101373.81;5110578;28;20036;-72
2022/03/25 09:27:29;;;;;;;29.42;17.95;;;;;;;15.24;39.06;101378.56;5110420;28;20046;-72
2022/03/25 09:29:55;;;;;;;32.05;18.05;;;;;;;15.52;37.72;101374.38;5112353;28;20031;-72
2022/03/25 09:32:20;;;;;;;29.70;17.55;;;;;;;15.58;37.60;101370.13;5111748;28;20036;-70
2022/03/25 09:37:30;;;;;;;29.42;18.77;;;;;;;15.36;37.35;101366.44;5111740;28;20040;-70
2022/03/25 09:39:56;;;;;;;30.25;18.15;;;;;;;15.80;37.84;101360.44;5111560;28;20031;-70
2022/03/25 09:42:23;;;;;;;29.02;18.38;;;;;;;16.05;36.43;101366.44;5111410;28;20160;-71
2022/03/25 09:44:49;;;;;;;29.80;18.52;;;;;;;15.96;38.57;101365.66;5111629;28;20043;-70
2022/03/25 09:47:16;;;;;;;28.65;18.05;;;;;;;16.66;37.06;101364.47;5111505;28;20032;-71
2022/03/25 09:49:42;;;;;;;;;;;;;;;16.78;37.70;101354.94;5112069;28;20035;-71
2022/03/25 09:52:08;;;;;;;32.40;18.60;;;;;;;17.18;34.11;101358.09;5109900;28;20332;-70
2022/03/25 09:54:34;;;;;;;26.52;17.95;;;;;;;17.95;34.11;101355.59;5112121;28;20028;-70
2022/03/25 09:57:01;;;;;;;29.75;17.77;;;;;;;18.53;33.28;101349.97;5112043;28;20039;-70
2022/03/25 09:59:27;;;;;;;32.22;18.95;;;;;;;18.36;35.87;101358.38;5093764;28;20051;-70
2022/03/25 10:01:52;;;;;;;28.85;19.30;;;;;;;18.57;31.70;101345.84;5111445;28;20032;-70
2022/03/25 10:04:40;;;;;;;33.33;19.77;;;;;;;19.07;30.67;101352.75;5111909;28;20032;-71
2022/03/25 10:07:20;;;;;;;26.45;18.92;;;;;;;19.54;31.34;101345.59;5111403;28;20484;-70
2022/03/25 10:10:06;;;;;;;31.20;19.10;;;;;;;19.49;30.40;101348.06;5115572;28;20042;-70
2022/03/25 10:12:31;;;;;;;29.48;18.65;;;;;;;19.95;30.59;101345.47;5115320;28;20031;-70
2022/03/25 10:15:21;;;;;;;31.75;19.48;;;;;;;20.00;29.73;101339.41;5115815;28;20031;-71
2022/03/25 10:18:01;;;;;;;31.40;19.67;;;;;;;20.06;30.23;101336.69;5115271;28;20046;-71
2022/03/25 10:20:43;;;;;;;30.02;19.13;;;;;;;20.63;28.61;101338.91;5114996;28;20051;-71
2022/03/25 10:23:14;;;;;;;34.03;19.83;;;;;;;20.66;30.43;101338.47;5114821;28;20460;-71
2022/03/25 10:25:55;;;;;;;28.98;19.58;;;;;;;19.94;30.15;101337.53;5115014;28;20045;-70
2022/03/25 10:28:27;;;;;;;31.40;19.45;;;;;;;19.75;31.08;101337.31;5115018;28;20036;-70
2022/03/25 10:31:08;;;;;;;28.13;19.05;;;;;;;20.74;28.52;101343.69;5115281;28;20085;-71
2022/03/25 10:34:02;;;;;;;29.20;19.73;;;;;;;21.60;26.85;101340.53;5114659;28;20464;-70
2022/03/25 10:36:29;;;;;;;34.22;20.00;;;;;;;21.83;27.53;101338.03;5116643;28;20046;-70
2022/03/25 10:39:11;;;;;;;29.90;20.63;;;;;;;20.76;30.70;101331.59;5115627;28;20035;-70
2022/03/25 10:41:38;;;;;;;26.30;19.60;;;;;;;21.86;27.27;101334.91;5114937;28;20477;-70
2022/03/25 10:44:04;;;;;;;32.67;21.35;;;;;;;20.63;29.05;101331.63;5114752;28;20032;-71
2022/03/25 10:46:32;;;;;;;35.17;20.58;;;;;;;21.44;28.70;101319.38;5114606;28;20036;-70
2022/03/25 10:48:58;;;;;;;26.70;19.38;;;;;;;21.68;27.15;101329.41;5114633;28;20039;-70
2022/03/25 10:51:24;;;;;;;31.88;21.17;;;;;;;21.87;27.37;101335.72;5114590;28;20039;-70
2022/03/25 10:54:02;;;;;;;29.55;19.77;;;;;;;20.59;28.80;101320.38;5114408;28;20540;-70
2022/03/25 10:56:30;;;;;;;28.60;19.98;;;;;;;22.03;27.76;101320.78;5113215;28;20036;-70
2022/03/25 10:58:57;;;;;;;28.85;19.75;;;;;;;22.24;26.90;101320.41;5114711;27;20055;-70
2022/03/25 11:01:23;;;;;;;28.70;20.05;;;;;;;22.08;27.40;101315.50;5114518;28;20036;-70
2022/03/25 11:03:53;;;;;;;30.45;21.00;;;;;;;22.78;25.94;101317.91;5114318;28;20088;-70
2022/03/25 11:06:19;;;;;;;27.20;19.13;;;;;;;22.80;27.12;101313.06;5114475;28;20038;-74
2022/03/25 11:08:46;;;;;;;32.10;20.27;;;;;;;22.98;27.41;101305.75;5116101;28;20058;-75
2022/03/25 11:11:16;;;;;;;29.30;20.60;;;;;;;23.24;24.63;101320.03;5114500;28;20551;-71
2022/03/25 11:13:44;;;;;;;27.67;20.00;;;;;;;22.40;27.95;101308.94;5114043;28;20035;-71
2022/03/25 11:16:13;;;;;;;28.48;20.17;;;;;;;22.22;26.16;101317.06;5114258;28;20040;-71
2022/03/25 11:18:41;;;;;;;31.70;21.02;;;;;;;21.81;26.83;101321.16;5114004;28;20575;-71
2022/03/25 11:21:09;;;;;;;31.02;20.20;;;;;;;22.96;26.46;101307.06;5114015;28;20060;-71
2022/03/25 11:23:56;;;;;;;26.10;19.45;;;;;;;21.89;26.58;101304.63;5112787;28;20122;-71
2022/03/25 11:26:24;;;;;;;27.50;20.17;;;;;;;23.82;23.89;101303.06;5114015;28;20400;-71
2022/03/25 11:28:56;;;;;;;29.38;20.38;;;;;;;23.27;24.92;101298.66;5112608;28;20047;-71
2022/03/25 11:31:24;;;;;;;28.85;19.92;;;;;;;22.64;25.25;101298.25;5113869;28;20392;-70
2022/03/25 11:34:10;;;;;;;25.00;19.10;;;;;;;23.51;23.93;101294.09;5129490;22;20027;-71
2022/03/25 11:36:40;;;;;;;26.75;20.33;;;;;;;24.42;22.76;101293.81;5053210;28;20537;-71
2022/03/25 11:39:21;;;;;;;31.02;20.98;;;;;;;23.55;23.33;101289.88;5035066;28;20079;-70
2022/03/25 11:41:47;;;;;;;30.38;20.52;;;;;;;24.66;22.06;101289.97;5052535;28;20053;-70
2022/03/25 11:44:16;;;;;;;27.17;19.13;;;;;;;24.24;22.38;101281.97;5052537;28;20163;-70
2022/03/25 11:47:00;;;;;;;26.88;20.60;;;;;;;23.84;22.82;101281.88;5052794;28;20115;-70
2022/03/25 11:49:30;;;;;;;31.45;21.25;;;;;;;24.69;22.20;101272.31;5052587;28;20029;-70
2022/03/25 11:51:56;;;;;;;29.17;20.63;;;;;;;23.62;23.05;101275.38;5052644;28;20124;-70
2022/03/25 11:54:37;;;;;;;28.50;20.48;;;;;;;24.47;21.56;101275.69;5052815;28;20041;-70
2022/03/25 11:57:20;;;;;;;26.63;20.77;;;;;;;24.72;21.27;101278.13;5052616;28;20045;-70
2022/03/25 11:59:55;;;;;;;26.63;19.67;;;;;;;24.32;22.01;101268.00;5052426;28;20043;-70
2022/03/25 12:02:24;;;;;;;28.60;20.52;;;;;;;23.71;24.35;101271.22;5051964;28;20462;-71
2022/03/25 12:04:51;;;;;;;29.75;20.38;;;;;;;23.42;25.07;101268.31;5052222;28;20426;-70
2022/03/25 12:07:16;;;;;;;26.13;20.52;;;;;;;23.91;22.32;101260.81;5052239;28;20436;-70
2022/03/25 12:09:46;;;;;;;26.90;19.90;;;;;;;23.65;23.71;101264.00;5052262;28;20078;-70
2022/03/25 12:12:13;;;;;;;27.77;19.63;;;;;;;23.68;24.44;101260.81;5051846;28;20501;-70
2022/03/25 12:15:06;;;;;;;28.77;19.88;;;;;;;23.34;26.36;101263.22;5017998;28;20179;-71
2022/03/25 12:17:31;;;;;;;28.02;20.48;;;;;;;23.07;24.83;101256.53;5017773;28;20493;-70
2022/03/25 12:19:59;;;;;;;32.42;20.48;;;;;;;24.50;23.74;101250.69;5052108;28;20071;-69
2022/03/25 12:22:32;;;;;;;26.65;19.77;;;;;;;24.84;24.13;101254.38;5051689;28;20071;-69
2022/03/25 12:25:06;;;;;;;30.27;20.25;;;;;;;24.45;23.00;101244.31;5051826;28;20065;-69
2022/03/25 12:27:32;;;;;;;27.20;19.88;;;;;;;25.57;19.83;101249.13;5034049;28;20106;-70
2022/03/25 12:29:57;;;;;;;30.38;20.58;;;;;;;25.65;20.58;101248.72;5051458;28;20044;-70
2022/03/25 12:32:25;;;;;;;26.27;20.75;;;;;;;26.03;19.73;101241.66;5051420;28;20048;-70
2022/03/25 12:35:04;;;;;;;27.00;20.33;;;;;;;25.97;18.66;101232.56;5051696;28;20041;-70
2022/03/25 12:37:37;;;;;;;27.38;19.38;;;;;;;26.59;18.35;101235.00;5033777;28;20561;-70
2022/03/25 12:40:19;;;;;;;28.55;21.08;;;;;;;26.38;19.03;101230.38;5033923;28;20060;-69
2022/03/25 12:42:58;;;;;;;28.95;21.15;;;;;;;26.17;19.89;101224.66;5033757;28;20032;-69
2022/03/25 12:45:37;;;;;;;29.00;21.08;;;;;;;26.96;20.10;101221.47;5051682;28;20040;-72
2022/03/25 12:48:12;;;;;;;28.77;21.60;;;;;;;26.88;18.92;101221.13;5034209;28;20126;-72
2022/03/25 12:50:42;;;;;;;26.55;20.73;;;;;;;26.39;19.20;101221.09;5051725;28;20041;-72
2022/03/25 12:53:08;;;;;;;30.80;20.00;;;;;;;27.20;20.17;101218.44;5051349;28;20593;-72
2022/03/25 12:55:33;;;;;;;28.20;19.85;;;;;;;26.04;20.60;101216.00;5033890;28;20079;-74
2022/03/25 12:58:08;;;;;;;28.48;21.50;;;;;;;25.21;21.85;101209.53;5051581;28;20052;-74
2022/03/25 13:00:37;;;;;;;30.30;21.20;;;;;;;25.52;23.10;101214.41;5033669;28;20159;-73
2022/03/25 13:03:04;;;;;;;30.27;19.83;;;;;;;24.97;21.57;101214.25;5033279;28;20045;-73
2022/03/25 13:05:31;;;;;;;26.07;20.10;;;;;;;24.80;22.06;101200.63;5051371;28;20049;-72
2022/03/25 13:07:57;;;;;;;;;;;;;;;24.37;21.58;101207.41;5052233;28;20306;-72
2022/03/25 13:10:23;;;;;;;26.15;19.83;;;;;;;24.85;21.30;101201.53;5051541;28;20356;-73
2022/03/25 13:12:52;;;;;;;28.25;19.88;;;;;;;25.96;19.70;101195.44;5033390;28;20108;-73
2022/03/25 13:15:25;;;;;;;26.08;19.75;;;;;;;25.54;18.46;101197.78;5051369;28;20033;-73
2022/03/25 13:17:52;;;;;;;27.83;19.27;;;;;;;25.67;19.54;101198.25;5016997;28;20033;-72
2022/03/25 13:20:23;;;;;;;;;;;;;;;26.64;18.72;101188.63;5034016;28;20041;-74
2022/03/25 13:22:59;;;;;;;30.90;19.92;;;;;;;26.66;18.87;101183.72;5051609;28;19913;-72
2022/03/25 13:25:50;;;;;;;27.08;18.80;;;;;;;26.44;17.79;101182.94;5051731;28;20040;-74
2022/03/25 13:28:22;;;;;;;27.63;18.00;;;;;;;26.58;17.80;101180.63;5031009;28;20481;-74
2022/03/25 13:30:49;;;;;;;25.67;19.33;;;;;;;25.32;19.67;101184.09;5051389;28;20021;-75
2022/03/25 13:33:23;;;;;;;25.00;19.42;;;;;;;25.19;20.30;101178.97;5033296;28;20037;-71
2022/03/25 13:35:54;;;;;;;26.58;19.77;;;;;;;26.37;19.19;101174.91;5033160;28;20033;-71
2022/03/25 13:38:22;;;;;;;25.13;19.55;;;;;;;26.24;17.54;101176.13;5033576;28;20037;-72
2022/03/25 13:40:58;;;;;;;24.17;19.23;;;;;;;25.78;19.06;101182.09;5051461;28;20037;-72
2022/03/25 13:43:33;;;;;;;23.63;18.73;;;;;;;25.21;19.22;101174.91;5035074;28;20510;-71
2022/03/25 13:46:04;;;;;;;25.80;20.05;;;;;;;26.18;18.41;101160.75;5055123;28;20147;-73
2022/03/25 13:49:01;;;;;;;24.20;19.02;;;;;;;26.42;17.65;101166.81;5055079;28;20143;-72
2022/03/25 13:51:30;;;;;;;;;;;;;;;26.90;17.73;101169.75;5054962;28;20390;-72
2022/03/25 13:54:26;;;;;;;24.05;19.05;;;;;;;26.00;18.25;101169.28;5020486;28;20019;-72
2022/03/25 13:56:54;;;;;;;25.15;20.50;;;;;;;26.87;17.80;101159.34;5054250;28;20045;-72
2022/03/25 13:59:27;;;;;;;25.27;19.85;;;;;;;25.40;18.87;101165.41;5054907;28;20044;-72
2022/03/25 14:01:53;;;;;;;22.85;19.17;;;;;;;25.17;19.43;101155.53;5054564;28;20078;-73
2022/03/25 14:04:22;;;;;;;22.90;17.35;;;;;;;25.81;18.12;101162.47;5036825;28;20565;-72
2022/03/25 14:06:50;;;;;;;19.58;15.77;;;;;;;25.26;15.91;101158.66;5055141;28;20040;-72
2022/03/25 14:09:36;;;;;;;23.58;16.65;;;;;;;25.47;16.99;101164.41;5036574;28;20037;-71
2022/03/25 14:12:19;;;;;;;22.25;15.80;;;;;;;25.16;16.77;101164.75;5054622;28;20035;-72
2022/03/25 14:15:06;;;;;;;18.58;15.70;;;;;;;24.67;17.30;101160.88;5054932;28;20043;-71
2022/03/25 14:17:37;;;;;;;17.65;14.90;;;;;;;24.18;18.01;101154.16;5054477;28;20040;-73
2022/03/25 14:20:19;;;;;;;17.02;13.82;;;;;;;23.00;19.77;101156.94;5036618;28;20044;-73
2022/03/25 14:22:53;;;;;;;20.15;15.90;;;;;;;22.00;21.13;101145.75;5036250;28;20047;-73
2022/03/25 14:25:21;;;;;;;22.08;15.43;;;;;;;22.56;19.66;101143.78;5054269;28;20041;-72
2022/03/25 14:27:51;;;;;;;19.00;14.57;;;;;;;22.63;19.41;101142.66;5036278;28;20045;-73
2022/03/25 14:30:16;;;;;;;18.75;13.68;;;;;;;22.63;19.01;101145.38;5036200;28;20044;-72
2022/03/25 14:32:42;;;;;;;21.27;15.52;;;;;;;22.42;19.26;101146.69;5053824;28;20033;-71
2022/03/25 14:35:08;;;;;;;20.50;15.57;;;;;;;21.72;19.44;101140.03;5053743;28;20417;-70
2022/03/25 14:37:34;;;;;;;20.13;15.23;;;;;;;21.09;20.59;101139.13;5054231;28;20086;-71
2022/03/25 14:39:59;;;;;;;20.60;15.95;;;;;;;21.38;20.53;101142.22;5054345;28;20409;-72
2022/03/25 14:42:25;;;;;;;20.50;14.45;;;;;;;21.45;19.54;101142.16;5053703;28;20040;-73
2022/03/25 14:44:51;;;;;;;18.58;13.52;;;;;;;21.45;19.48;101142.16;5053943;28;20064;-72
2022/03/25 14:47:17;;;;;;;20.45;14.27;;;;;;;20.81;21.55;101134.13;5035914;28;20037;-71
2022/03/25 14:49:43;;;;;;;20.40;13.52;;;;;;;20.99;19.29;101149.59;5036417;28;20064;-72
2022/03/25 14:52:10;;;;;;;21.33;14.50;;;;;;;21.12;19.05;101144.06;5053990;28;20036;-72
2022/03/25 14:54:37;;;;;;;19.30;13.75;;;;;;;20.85;18.93;101135.31;5054078;28;20064;-72
2022/03/25 14:57:05;;;;;;;22.25;14.80;;;;;;;20.90;19.46;101133.84;5038046;28;20045;-72
2022/03/25 14:59:31;;;;;;;18.80;13.00;;;;;;;20.80;19.50;101132.47;5055446;28;20037;-71
2022/03/25 15:01:57;;;;;;;19.50;14.63;;;;;;;20.61;19.88;101140.72;5053806;28;20443;-71
2022/03/25 15:04:23;;;;;;;21.67;13.38;;;;;;;20.76;19.82;101133.94;5053754;28;20073;-70
2022/03/25 15:06:49;;;;;;;20.65;14.18;;;;;;;20.79;19.94;101128.09;5019427;28;20065;-70
2022/03/25 15:09:16;;;;;;;20.30;14.15;;;;;;;20.72;20.03;101127.31;5053595;28;20045;-70
2022/03/25 15:11:42;;;;;;;20.17;14.20;;;;;;;20.74;20.36;101136.06;5053405;28;20044;-72
2022/03/25 15:14:08;;;;;;;24.33;14.55;;;;;;;20.62;20.12;101128.84;5053352;28;20127;-71
2022/03/25 15:16:34;;;;;;;20.15;14.55;;;;;;;20.44;21.10;101127.66;5053260;28;20068;-72
2022/03/25 15:19:00;;;;;;;21.45;14.73;;;;;;;20.53;20.59;101123.66;5053574;28;20442;-71
2022/03/25 15:21:25;;;;;;;18.38;13.98;;;;;;;20.58;19.91;101125.72;5053007;28;20036;-71
2022/03/25 15:23:51;;;;;;;22.08;14.77;;;;;;;20.51;20.08;101123.06;5035134;28;20041;-71
2022/03/25 15:26:17;;;;;;;19.85;14.23;;;;;;;20.18;19.96;101120.50;5053222;28;20098;-72
2022/03/25 15:28:43;;;;;;;22.45;14.48;;;;;;;20.33;20.23;101122.94;5053545;28;20411;-72
2022/03/25 15:36:37;;;;;;;21.08;14.65;;;;;;;20.24;20.89;101125.06;5035228;28;20140;-75
2022/03/25 15:39:05;;;;;;;19.25;13.65;;;;;;;20.29;21.86;101116.31;5053010;28;20465;-75
2022/03/25 15:41:30;;;;;;;20.67;14.52;;;;;;;20.18;21.51;101114.28;5018373;28;20056;-73
2022/03/25 15:43:56;;;;;;;21.10;15.45;;;;;;;20.10;21.63;101128.88;5052732;28;20091;-73
2022/03/25 15:46:22;;;;;;;22.65;16.30;;;;;;;19.92;21.43;101116.03;5052838;28;20040;-72
2022/03/25 15:48:51;;;;;;;22.67;15.90;;;;;;;19.85;21.64;101117.13;5052823;28;20033;-71
2022/03/25 15:51:18;;;;;;;24.95;15.73;;;;;;;19.62;21.77;101110.31;5052567;28;20482;-72
2022/03/25 15:53:44;;;;;;;23.52;15.75;;;;;;;19.43;22.79;101112.00;5052431;28;20032;-72
2022/03/25 15:56:11;;;;;;;24.48;15.73;;;;;;;19.45;22.75;101109.09;5052432;28;20033;-72
2022/03/25 15:58:37;;;;;;;20.33;15.60;;;;;;;19.44;22.97;101118.22;5052615;28;20037;-73
2022/03/25 16:01:03;;;;;;;23.38;16.33;;;;;;;19.52;21.88;101120.72;5034354;28;20120;-72
2022/03/25 16:03:29;;;;;;;22.60;14.57;;;;;;;19.39;21.45;101115.31;5034540;28;20068;-72
2022/03/25 16:05:55;;;;;;;22.42;14.85;;;;;;;19.44;21.86;101112.84;5051538;28;20084;-72
2022/03/25 16:08:22;;;;;;;21.00;14.30;;;;;;;19.58;21.24;101114.50;5017997;28;20057;-71
2022/03/25 16:10:48;;;;;;;20.13;14.67;;;;;;;19.48;21.75;101109.47;5034486;28;20080;-73
2022/03/25 16:13:16;;;;;;;18.80;14.23;;;;;;;19.25;21.56;101120.75;5034042;28;20482;-73
2022/03/25 16:15:42;;;;;;;24.65;15.10;;;;;;;19.30;21.73;101121.97;5034416;28;20506;-72
2022/03/25 16:18:08;;;;;;;24.30;16.55;;;;;;;19.32;22.01;101122.63;5052321;28;20119;-73
2022/03/25 16:20:35;;;;;;;25.92;16.52;;;;;;;19.30;21.97;101116.56;5052194;28;20116;-73
2022/03/25 16:23:01;;;;;;;23.55;15.70;;;;;;;19.21;22.64;101121.38;5033956;28;20044;-72
2022/03/25 16:25:28;;;;;;;23.73;15.35;;;;;;;19.25;22.40;101122.63;5051883;28;20486;-72
2022/03/25 16:27:54;;;;;;;22.95;15.48;;;;;;;19.22;22.37;101114.91;5052028;28;20047;-72
2022/03/25 16:30:21;;;;;;;22.17;16.07;;;;;;;19.19;22.76;101118.88;5051979;28;20055;-72
2022/03/25 16:32:49;;;;;;;23.98;15.05;;;;;;;18.97;22.57;101120.09;5051593;28;20036;-72
2022/03/25 16:35:15;;;;;;;21.30;14.50;;;;;;;18.91;22.62;101120.97;5051850;28;20029;-72
2022/03/25 16:37:42;;;;;;;23.52;15.60;;;;;;;18.95;22.58;101114.09;5034104;28;20033;-72
2022/03/25 16:40:11;;;;;;;24.65;15.50;;;;;;;18.92;22.66;101126.16;5051878;28;20036;-72
2022/03/25 16:42:37;;;;;;;22.05;15.48;;;;;;;18.87;22.91;101115.13;5051452;28;20063;-72
2022/03/25 16:45:04;;;;;;;21.20;15.13;;;;;;;18.79;22.81;101115.34;5051739;28;20090;-73
2022/03/25 16:47:30;;;;;;;23.63;15.80;;;;;;;18.81;22.72;101120.53;5052626;28;20033;-72
2022/03/25 16:49:56;;;;;;;23.02;15.40;;;;;;;18.80;22.81;101125.09;5034221;28;20048;-72
2022/03/25 16:52:21;;;;;;;26.58;15.07;;;;;;;18.78;23.05;101118.22;5051300;28;20029;-72
2022/03/25 16:54:47;;;;;;;21.60;14.73;;;;;;;18.78;23.18;101123.63;5033571;28;20041;-73